createdAt,value
2019-01-11T00:00:16.607Z,12.23
2019-01-11T00:02:43.655Z,4.50
2019-01-11T00:05:10.709Z,6.50
2019-01-11T00:07:37.752Z,10.80
2019-01-11T00:10:04.801Z,8.87
2019-01-11T00:12:31.745Z,5.63
2019-01-11T00:14:58.794Z,12.23
2019-01-11T00:17:25.848Z,7.23
2019-01-11T00:19:52.846Z,13.53
2019-01-11T00:22:21.504Z,15.63
2019-01-11T00:24:50.573Z,11.50
2019-01-11T00:27:17.621Z,10.60
2019-01-11T00:29:44.675Z,12.37
2019-01-11T00:32:11.719Z,9.67
2019-01-11T00:34:39.842Z,13.23
2019-01-11T00:37:09.199Z,8.90
2019-01-11T00:39:36.242Z,13.50
2019-01-11T00:42:03.289Z,12.23
2019-01-11T00:44:30.345Z,11.13
2019-01-11T00:46:57.344Z,10.00
2019-01-11T00:49:24.347Z,14.20
2019-01-11T00:51:51.899Z,11.33
2019-01-11T00:54:18.948Z,11.57
2019-01-11T00:56:45.995Z,14.27
2019-01-11T00:59:13.043Z,14.63
2019-01-11T01:01:40.094Z,7.13
2019-01-11T01:04:07.137Z,4.80
2019-01-11T01:06:34.948Z,9.37
2019-01-11T01:09:02.055Z,9.37
2019-01-11T01:11:29.101Z,9.27
2019-01-11T01:13:56.153Z,10.00
2019-01-11T01:16:23.095Z,9.43
2019-01-11T01:18:50.148Z,11.57
2019-01-11T01:21:17.193Z,10.73
2019-01-11T01:23:45.065Z,10.10
2019-01-11T01:26:12.107Z,8.67
2019-01-11T01:28:39.158Z,9.50
2019-01-11T01:31:06.210Z,9.03
2019-01-11T01:33:33.253Z,8.27
2019-01-11T01:36:00.301Z,13.13
2019-01-11T01:38:27.356Z,10.63
2019-01-11T01:40:54.399Z,12.53
2019-01-11T01:43:21.447Z,8.80
2019-01-11T01:45:48.500Z,11.80
2019-01-11T01:48:15.543Z,14.87
2019-01-11T01:50:42.594Z,11.17
2019-01-11T01:53:09.645Z,10.80
2019-01-11T01:55:36.690Z,9.63
2019-01-11T01:58:03.737Z,12.07
2019-01-11T02:00:30.734Z,7.13
2019-01-11T02:02:57.735Z,13.13
2019-01-11T02:05:24.786Z,11.10
2019-01-11T02:07:56.923Z,8.70
2019-01-11T02:10:24.003Z,6.70
2019-01-11T02:12:51.046Z,11.00
2019-01-11T02:15:18.094Z,12.23
2019-01-11T02:17:45.148Z,11.07
2019-01-11T02:20:12.961Z,8.47
2019-01-11T02:22:39.917Z,20.40
2019-01-11T02:25:08.849Z,6.37
2019-01-11T02:27:35.907Z,7.47
2019-01-11T02:30:03.063Z,5.80
2019-01-11T02:32:31.540Z,10.63
2019-01-11T02:34:58.583Z,10.37
2019-01-11T02:37:25.645Z,14.40
2019-01-11T02:39:52.674Z,6.77
2019-01-11T02:42:19.731Z,4.37
2019-01-11T02:44:46.771Z,8.90
2019-01-11T02:47:13.820Z,10.20
2019-01-11T02:49:40.873Z,9.80
2019-01-11T02:52:07.864Z,9.53
2019-01-11T02:54:34.868Z,7.80
2019-01-11T02:57:01.914Z,9.30
2019-01-11T02:59:28.959Z,6.73
2019-01-11T03:01:56.016Z,7.87
2019-01-11T03:04:23.056Z,10.10
2019-01-11T03:06:50.719Z,9.90
2019-01-11T03:09:17.747Z,8.67
2019-01-11T03:11:44.713Z,7.67
2019-01-11T03:14:11.721Z,9.87
2019-01-11T03:16:38.711Z,12.23
2019-01-11T03:19:05.768Z,11.40
2019-01-11T03:21:32.822Z,10.10
2019-01-11T03:23:59.854Z,11.67
2019-01-11T03:26:26.848Z,9.87
2019-01-11T03:28:53.860Z,9.80
2019-01-11T03:31:20.902Z,8.57
2019-01-11T03:33:47.946Z,8.90
2019-01-11T03:36:14.994Z,7.97
2019-01-11T03:38:42.759Z,4.73
2019-01-11T03:41:09.813Z,10.63
2019-01-11T03:46:34.732Z,8.93
2019-01-11T03:49:01.781Z,10.50
2019-01-11T03:51:28.833Z,10.33
2019-01-11T03:53:55.876Z,9.87
2019-01-11T03:56:22.920Z,10.20
2019-01-11T03:58:49.977Z,10.23
2019-01-11T04:01:16.969Z,10.17
2019-01-11T04:03:43.973Z,8.93
2019-01-11T04:06:11.012Z,10.27
2019-01-11T04:08:38.059Z,5.40
2019-01-11T04:11:05.113Z,7.60
2019-01-11T04:13:32.157Z,6.77
2019-01-11T04:15:59.205Z,6.80
2019-01-11T04:18:29.431Z,7.30
2019-01-11T04:20:56.481Z,12.77
2019-01-11T04:23:23.590Z,12.87
2019-01-11T04:25:51.448Z,14.70
2019-01-11T04:28:18.548Z,10.70
2019-01-11T04:30:46.105Z,7.90
2019-01-11T04:33:13.111Z,8.93
2019-01-11T04:35:40.098Z,6.53
2019-01-11T04:38:07.152Z,7.53
2019-01-11T04:40:34.870Z,7.57
2019-01-11T04:43:01.858Z,8.40
2019-01-11T04:45:28.925Z,6.90
2019-01-11T04:47:55.955Z,8.30
2019-01-11T04:50:23.004Z,11.87
2019-01-11T04:52:50.061Z,10.40
2019-01-11T04:55:17.100Z,8.10
2019-01-11T04:57:44.153Z,8.33
2019-01-11T05:00:18.979Z,8.83
2019-01-11T05:02:46.034Z,6.57
2019-01-11T05:05:13.051Z,8.73
2019-01-11T05:07:40.027Z,6.87
2019-01-11T05:10:07.016Z,8.83
2019-01-11T05:12:33.965Z,5.87
2019-01-11T05:15:01.080Z,9.00
2019-01-11T05:17:28.218Z,8.50
2019-01-11T05:19:55.263Z,7.80
2019-01-11T05:22:22.317Z,8.93
2019-01-11T05:24:49.326Z,9.07
2019-01-11T05:27:16.311Z,7.47
2019-01-11T05:29:43.357Z,9.00
2019-01-11T05:32:10.403Z,7.93
2019-01-11T05:34:37.457Z,6.70
2019-01-11T05:37:04.447Z,8.50
2019-01-11T05:39:31.451Z,8.37
2019-01-11T05:41:58.496Z,10.53
2019-01-11T05:44:25.542Z,7.77
2019-01-11T05:46:53.212Z,8.13
2019-01-11T05:49:20.254Z,9.03
2019-01-11T05:51:48.068Z,21.53
2019-01-11T05:54:15.068Z,12.60
2019-01-11T05:56:42.123Z,9.57
2019-01-11T05:59:09.164Z,8.63
2019-01-11T06:01:36.213Z,10.43
2019-01-11T06:04:03.574Z,8.97
2019-01-11T06:06:31.081Z,10.53
2019-01-11T06:08:58.279Z,8.83
2019-01-11T06:11:26.966Z,8.97
2019-01-11T06:13:55.463Z,9.53
2019-01-11T06:16:22.561Z,34.33
2019-01-11T06:18:50.979Z,8.87
2019-01-11T06:21:18.334Z,30.40
2019-01-11T06:23:45.388Z,45.67
2019-01-11T06:26:12.443Z,112.20
2019-01-11T06:28:39.483Z,53.87
2019-01-11T06:31:06.630Z,47.00
2019-01-11T06:33:33.992Z,108.60
2019-01-11T06:36:01.036Z,56.13
2019-01-11T06:38:27.988Z,8.50
2019-01-11T06:40:55.042Z,14.00
2019-01-11T06:43:22.079Z,17.03
2019-01-11T06:45:49.132Z,10.93
2019-01-11T06:48:17.205Z,7.73
2019-01-11T06:50:44.246Z,17.33
2019-01-11T06:53:11.295Z,9.50
2019-01-11T06:55:38.352Z,14.83
2019-01-11T06:58:05.698Z,30.20
2019-01-11T07:00:34.590Z,18.60
2019-01-11T07:03:01.600Z,17.53
2019-01-11T07:05:28.540Z,10.77
2019-01-11T07:07:55.735Z,10.57
2019-01-11T07:10:22.887Z,9.97
2019-01-11T07:12:49.939Z,9.73
2019-01-11T07:15:16.945Z,10.33
2019-01-11T07:17:43.953Z,13.43
2019-01-11T07:20:12.006Z,13.77
2019-01-11T07:22:39.048Z,8.57
2019-01-11T07:25:06.100Z,6.50
2019-01-11T07:27:33.106Z,10.53
2019-01-11T07:30:01.733Z,8.07
2019-01-11T07:32:29.188Z,11.43
2019-01-11T07:34:56.366Z,10.57
2019-01-11T07:37:23.441Z,6.83
2019-01-11T07:39:50.555Z,14.00
2019-01-11T07:42:17.536Z,6.53
2019-01-11T07:44:44.533Z,10.97
2019-01-11T07:47:11.586Z,11.07
2019-01-11T07:49:38.629Z,11.13
2019-01-11T07:52:06.814Z,39.10
2019-01-11T07:54:35.743Z,30.13
2019-01-11T07:57:02.858Z,6.37
2019-01-11T07:59:29.896Z,31.80
2019-01-11T08:01:57.000Z,13.77
2019-01-11T08:04:24.201Z,14.60
2019-01-11T08:06:55.308Z,27.07
2019-01-11T08:09:22.414Z,9.57
2019-01-11T08:11:49.546Z,11.40
2019-01-11T08:14:16.701Z,19.30
2019-01-11T08:16:43.739Z,17.07
2019-01-11T08:19:11.402Z,13.10
2019-01-11T08:21:38.486Z,9.40
2019-01-11T08:24:05.708Z,15.33
2019-01-11T08:26:32.757Z,8.87
2019-01-11T08:28:59.800Z,4.60
2019-01-11T08:31:26.848Z,7.90
2019-01-11T08:33:54.254Z,10.53
2019-01-11T08:36:21.361Z,8.67
2019-01-11T08:38:48.407Z,8.37
2019-01-11T08:41:39.625Z,11.00
2019-01-11T08:44:06.676Z,7.73
2019-01-11T08:46:33.591Z,6.23
2019-01-11T08:49:00.663Z,3.93
2019-01-11T08:51:27.719Z,6.10
2019-01-11T08:53:54.765Z,8.80
2019-01-11T08:56:21.857Z,8.23
2019-01-11T08:58:49.066Z,7.13
2019-01-11T09:01:16.219Z,6.17
2019-01-11T09:03:43.263Z,5.27
2019-01-11T09:06:12.153Z,5.20
2019-01-11T09:08:39.513Z,5.27
2019-01-11T09:11:06.556Z,6.43
2019-01-11T09:13:33.508Z,5.33
2019-01-11T09:16:00.549Z,2.10
2019-01-11T09:18:34.567Z,5.00
2019-01-11T09:21:01.780Z,4.63
2019-01-11T09:23:28.806Z,1.30
2019-01-11T09:25:55.809Z,3.93
2019-01-11T09:28:22.817Z,0.57
2019-01-11T09:30:49.807Z,0.77
2019-01-11T09:33:20.513Z,4.83
2019-01-11T09:35:44.484Z,1.23
2019-01-11T09:38:11.603Z,2.77
2019-01-11T09:40:38.687Z,1.20
2019-01-11T09:43:05.771Z,1.13
2019-01-11T09:45:32.811Z,2.17
2019-01-11T09:47:59.861Z,1.17
2019-01-11T09:50:27.004Z,0.50
2019-01-11T09:52:55.619Z,3.53
2019-01-11T09:55:22.652Z,2.20
2019-01-11T09:57:50.103Z,3.17
2019-01-11T10:00:17.254Z,0.40
2019-01-11T10:02:44.403Z,3.03
2019-01-11T10:05:11.760Z,3.63
2019-01-11T10:07:40.611Z,2.67
2019-01-11T10:10:07.808Z,1.40
2019-01-11T10:12:34.859Z,1.23
2019-01-11T10:15:02.087Z,1.80
2019-01-11T10:17:29.767Z,3.87
2019-01-11T10:19:56.917Z,3.30
2019-01-11T10:22:23.965Z,1.33
2019-01-11T10:24:51.020Z,1.97
2019-01-11T10:27:18.084Z,1.63
2019-01-11T10:29:45.214Z,1.67
2019-01-11T10:32:12.263Z,5.13
2019-01-11T10:34:39.316Z,4.00
2019-01-11T10:37:06.359Z,4.50
2019-01-11T10:39:33.466Z,5.73
2019-01-11T10:42:00.464Z,5.53
2019-01-11T10:44:27.614Z,4.93
2019-01-11T10:46:54.763Z,11.47
2019-01-11T10:49:21.914Z,6.73
2019-01-11T10:51:51.636Z,11.67
2019-01-11T10:54:18.770Z,12.17
2019-01-11T10:56:45.825Z,5.13
2019-01-11T10:59:14.173Z,5.60
2019-01-11T11:01:41.265Z,5.77
2019-01-11T11:04:08.406Z,6.73
2019-01-11T11:06:36.175Z,5.27
2019-01-11T11:09:04.959Z,6.17
2019-01-11T11:11:32.074Z,4.63
2019-01-11T11:13:59.143Z,5.63
2019-01-11T11:16:26.917Z,4.70
2019-01-11T11:18:53.967Z,5.93
2019-01-11T11:21:22.755Z,4.80
2019-01-11T11:23:53.904Z,7.10
2019-01-11T11:26:17.011Z,5.23
2019-01-11T11:28:44.011Z,4.40
2019-01-11T11:31:11.053Z,4.70
2019-01-11T11:33:38.101Z,10.17
2019-01-11T11:36:05.172Z,6.40
2019-01-11T11:38:32.504Z,6.97
2019-01-11T11:40:59.553Z,6.00
2019-01-11T11:43:26.704Z,4.67
2019-01-11T11:45:53.759Z,9.03
2019-01-11T11:48:20.819Z,6.03
2019-01-11T11:50:47.851Z,9.17
2019-01-11T11:53:14.904Z,5.83
2019-01-11T11:55:41.916Z,5.03
2019-01-11T11:58:09.100Z,5.43
2019-01-11T12:00:36.147Z,6.40
2019-01-11T12:03:03.216Z,5.00
2019-01-11T12:05:30.243Z,3.93
2019-01-11T12:07:57.292Z,5.37
2019-01-11T12:10:24.346Z,5.93
2019-01-11T12:12:51.499Z,7.97
2019-01-11T12:15:18.592Z,5.23
2019-01-11T12:17:45.690Z,3.67
2019-01-11T12:20:12.950Z,3.23
2019-01-11T12:22:40.024Z,3.90
2019-01-11T12:25:07.044Z,3.83
2019-01-11T12:27:34.098Z,4.20
2019-01-11T12:30:01.145Z,4.97
2019-01-11T12:32:28.188Z,3.80
2019-01-11T12:34:55.250Z,4.57
2019-01-11T12:37:46.133Z,7.03
2019-01-11T12:40:33.822Z,4.00
2019-01-11T12:43:22.262Z,3.83
2019-01-11T12:46:12.256Z,4.03
2019-01-11T12:48:59.491Z,4.73
2019-01-11T12:51:42.263Z,5.57
2019-01-11T12:54:33.255Z,3.53
2019-01-11T12:57:19.437Z,3.57
2019-01-11T12:59:47.533Z,4.00
2019-01-11T13:02:14.550Z,3.80
2019-01-11T13:04:41.635Z,5.10
2019-01-11T13:07:08.684Z,3.60
2019-01-11T13:09:35.727Z,4.37
2019-01-11T13:12:02.780Z,4.23
2019-01-11T13:14:30.031Z,4.57
2019-01-11T13:16:56.985Z,3.90
2019-01-11T13:19:24.024Z,4.03
2019-01-11T13:21:53.104Z,3.67
2019-01-11T13:24:20.073Z,4.70
2019-01-11T13:26:48.910Z,4.23
2019-01-11T13:29:15.913Z,5.87
2019-01-11T13:31:43.068Z,4.07
2019-01-11T13:34:11.132Z,4.00
2019-01-11T13:36:38.179Z,4.33
2019-01-11T13:39:05.455Z,4.73
2019-01-11T13:41:32.478Z,4.37
2019-01-11T13:43:59.526Z,4.13
2019-01-11T13:46:26.579Z,4.37
2019-01-11T13:48:53.627Z,4.70
2019-01-11T13:51:20.672Z,4.07
2019-01-11T13:53:47.727Z,4.73
2019-01-11T13:56:14.769Z,4.40
2019-01-11T13:58:41.920Z,4.07
2019-01-11T14:01:08.872Z,4.73
2019-01-11T14:03:36.023Z,6.00
2019-01-11T14:06:03.173Z,6.03
2019-01-11T14:08:30.225Z,4.20
2019-01-11T14:10:57.268Z,4.40
2019-01-11T14:13:24.319Z,4.70
2019-01-11T14:15:51.362Z,5.27
2019-01-11T14:18:18.516Z,4.83
2019-01-11T14:20:45.561Z,5.17
2019-01-11T14:23:12.616Z,5.43
2019-01-11T14:25:39.659Z,5.20
2019-01-11T14:28:06.722Z,6.10
2019-01-11T14:30:33.762Z,6.27
2019-01-11T14:33:00.806Z,6.20
2019-01-11T14:35:27.855Z,4.57
2019-01-11T14:37:58.191Z,5.73
2019-01-11T14:40:25.181Z,4.87
2019-01-11T14:42:52.173Z,5.63
2019-01-11T14:45:19.629Z,5.83
2019-01-11T14:47:46.685Z,6.67
2019-01-11T14:50:13.832Z,5.37
2019-01-11T14:52:41.291Z,5.73
2019-01-11T14:55:08.285Z,5.90
2019-01-11T14:57:35.385Z,5.57
2019-01-11T15:00:04.654Z,5.90
2019-01-11T15:02:32.144Z,6.50
2019-01-11T15:04:59.201Z,7.03
2019-01-11T15:07:26.866Z,6.33
2019-01-11T15:09:54.521Z,6.30
2019-01-11T15:12:21.568Z,5.97
2019-01-11T15:14:48.621Z,6.40
2019-01-11T15:17:15.681Z,7.47
2019-01-11T15:19:42.716Z,11.10
2019-01-11T15:22:09.871Z,8.50
2019-01-11T15:24:37.003Z,6.97
2019-01-11T15:27:04.072Z,5.87
2019-01-11T15:29:31.116Z,5.80
2019-01-11T15:31:58.164Z,5.90
2019-01-11T15:34:25.155Z,5.60
2019-01-11T15:36:52.992Z,6.90
2019-01-11T15:39:20.041Z,9.90
2019-01-11T15:41:47.073Z,9.77
2019-01-11T15:44:14.539Z,5.90
2019-01-11T15:46:41.585Z,8.10
2019-01-11T15:49:08.633Z,6.40
2019-01-11T15:51:35.676Z,7.27
2019-01-11T15:54:02.930Z,6.17
2019-01-11T15:56:30.387Z,6.20
2019-01-11T15:58:57.597Z,6.10
2019-01-11T16:01:25.413Z,8.37
2019-01-11T16:03:52.455Z,6.73
2019-01-11T16:06:23.612Z,6.80
2019-01-11T16:09:08.514Z,7.20
2019-01-11T16:11:41.456Z,7.90
2019-01-11T16:14:08.605Z,6.80
2019-01-11T16:16:35.658Z,8.70
2019-01-11T16:19:02.654Z,6.47
2019-01-11T16:21:29.749Z,7.03
2019-01-11T16:23:56.813Z,10.97
2019-01-11T16:26:23.847Z,8.87
2019-01-11T16:28:50.999Z,7.53
2019-01-11T16:31:18.055Z,8.97
2019-01-11T16:33:45.505Z,7.10
2019-01-11T16:36:12.558Z,8.33
2019-01-11T16:38:39.602Z,6.60
2019-01-11T16:41:07.265Z,9.80
2019-01-11T16:43:34.328Z,15.93
2019-01-11T16:46:01.730Z,14.13
2019-01-11T16:48:28.772Z,12.07
2019-01-11T16:50:55.773Z,10.60
2019-01-11T16:53:23.330Z,13.67
2019-01-11T16:55:50.340Z,10.80
2019-01-11T16:58:17.423Z,45.77
2019-01-11T17:00:46.833Z,21.03
2019-01-11T17:03:13.876Z,22.30
2019-01-11T17:05:41.127Z,64.03
2019-01-11T17:08:08.691Z,92.57
2019-01-11T17:10:35.891Z,36.37
2019-01-11T17:13:03.100Z,13.83
2019-01-11T17:15:30.143Z,19.73
2019-01-11T17:17:57.197Z,22.53
2019-01-11T17:20:24.254Z,38.50
2019-01-11T17:22:53.105Z,32.00
2019-01-11T17:25:18.440Z,29.70
2019-01-11T17:27:45.589Z,14.67
2019-01-11T17:30:12.657Z,16.80
2019-01-11T17:32:39.720Z,17.50
2019-01-11T17:35:06.793Z,17.37
2019-01-11T17:37:33.732Z,15.80
2019-01-11T17:40:00.941Z,14.10
2019-01-11T17:42:28.034Z,13.03
2019-01-11T17:44:55.032Z,12.17
2019-01-11T17:47:22.147Z,11.53
2019-01-11T17:49:49.239Z,9.97
2019-01-11T17:52:16.281Z,10.07
2019-01-11T17:54:43.342Z,16.67
2019-01-11T17:57:10.485Z,15.40
2019-01-11T17:59:37.533Z,33.93
2019-01-11T18:02:04.688Z,39.30
2019-01-11T18:04:33.276Z,12.90
2019-01-11T18:07:00.779Z,20.57
2019-01-11T18:09:27.982Z,8.97
2019-01-11T18:11:54.984Z,9.13
2019-01-11T18:14:22.075Z,9.03
2019-01-11T18:16:49.022Z,14.57
2019-01-11T18:19:16.072Z,12.97
2019-01-11T18:21:45.795Z,13.43
2019-01-11T18:24:12.892Z,7.27
2019-01-11T18:26:41.778Z,11.23
2019-01-11T18:29:08.773Z,7.80
2019-01-11T18:31:35.816Z,9.60
2019-01-11T18:34:04.716Z,8.57
2019-01-11T18:36:31.755Z,8.87
2019-01-11T18:38:58.804Z,8.97
2019-01-11T18:41:26.108Z,7.23
2019-01-11T18:43:53.071Z,6.80
2019-01-11T18:46:20.053Z,18.20
2019-01-11T18:48:47.818Z,20.73
2019-01-11T18:51:14.867Z,24.77
2019-01-11T18:53:43.149Z,14.67
2019-01-11T18:56:10.192Z,14.30
2019-01-11T18:58:37.240Z,12.73
2019-01-11T19:01:04.297Z,12.27
2019-01-11T19:03:31.525Z,14.47
2019-01-11T19:05:58.596Z,17.30
2019-01-11T19:08:25.639Z,31.10
2019-01-11T19:10:52.790Z,35.67
2019-01-11T19:13:19.851Z,15.20
2019-01-11T19:15:46.897Z,20.43
2019-01-11T19:18:13.937Z,9.17
2019-01-11T19:20:40.983Z,26.03
2019-01-11T19:23:08.039Z,33.37
2019-01-11T19:25:35.082Z,7.53
2019-01-11T19:28:02.138Z,4.87
2019-01-11T19:30:29.383Z,5.13
2019-01-11T19:32:56.431Z,7.43
2019-01-11T19:35:23.485Z,15.83
2019-01-11T19:37:50.528Z,68.07
2019-01-11T19:40:17.577Z,61.60
2019-01-11T19:42:44.636Z,19.23
2019-01-11T19:45:11.785Z,8.47
2019-01-11T19:47:38.862Z,7.13
2019-01-11T19:50:08.750Z,10.03
2019-01-11T19:52:51.397Z,5.97
2019-01-11T19:55:18.990Z,5.07
2019-01-11T19:57:46.051Z,5.87
2019-01-11T20:00:14.939Z,5.67
2019-01-11T20:02:41.911Z,8.53
2019-01-11T20:05:10.806Z,8.87
2019-01-11T20:07:38.259Z,22.43
2019-01-11T20:10:05.303Z,39.83
2019-01-11T20:12:32.353Z,104.20
2019-01-11T20:15:01.675Z,27.93
2019-01-11T20:17:29.448Z,8.50
2019-01-11T20:19:55.857Z,9.67
2019-01-11T20:22:23.931Z,13.47
2019-01-11T20:24:51.087Z,16.97
2019-01-11T20:27:18.136Z,46.90
2019-01-11T20:29:45.172Z,23.57
2019-01-11T20:32:12.227Z,48.53
2019-01-11T20:34:39.269Z,65.10
2019-01-11T20:37:06.442Z,45.20
2019-01-11T20:39:33.468Z,20.90
2019-01-11T20:42:00.521Z,18.23
2019-01-11T20:44:27.565Z,51.10
2019-01-11T20:46:54.717Z,24.37
2019-01-11T20:49:21.766Z,12.63
2019-01-11T20:51:48.818Z,24.13
2019-01-11T20:54:17.628Z,33.30
2019-01-11T20:56:44.964Z,16.43
2019-01-11T20:59:12.007Z,22.97
2019-01-11T21:01:39.068Z,22.87
2019-01-11T21:04:06.318Z,21.97
2019-01-11T21:06:33.356Z,20.33
2019-01-11T21:09:00.411Z,25.37
2019-01-11T21:11:27.457Z,16.77
2019-01-11T21:13:54.460Z,36.50
2019-01-11T21:16:21.449Z,16.43
2019-01-11T21:18:48.470Z,37.03
2019-01-11T21:21:15.572Z,15.07
2019-01-11T21:23:48.658Z,14.87
2019-01-11T21:26:10.051Z,19.97
2019-01-11T21:28:37.203Z,17.17
2019-01-11T21:31:04.254Z,19.20
2019-01-11T21:33:31.305Z,20.67
2019-01-11T21:35:58.349Z,17.43
2019-01-11T21:38:25.400Z,17.43
2019-01-11T21:40:52.450Z,15.90
2019-01-11T21:43:19.493Z,18.97
2019-01-11T21:45:46.542Z,17.67
2019-01-11T21:48:13.597Z,20.03
2019-01-11T21:50:40.612Z,20.73
2019-01-11T21:53:07.598Z,19.30
2019-01-11T21:55:34.746Z,17.00
2019-01-11T21:58:01.783Z,19.20
2019-01-11T22:00:28.940Z,16.93
2019-01-11T22:02:56.158Z,14.80
2019-01-11T22:05:23.236Z,18.90
2019-01-11T22:07:50.285Z,14.77
2019-01-11T22:10:17.338Z,19.33
2019-01-11T22:12:44.384Z,17.27
2019-01-11T22:15:11.432Z,15.73
2019-01-11T22:17:38.486Z,19.97
2019-01-11T22:20:06.502Z,18.03
2019-01-11T22:22:33.497Z,14.50
2019-01-11T22:25:03.470Z,20.57
2019-01-11T22:27:30.467Z,15.97
2019-01-11T22:29:57.510Z,26.17
2019-01-11T22:32:24.568Z,21.67
2019-01-11T22:34:51.811Z,17.50
2019-01-11T22:37:18.874Z,16.03
2019-01-11T22:39:45.914Z,29.50
2019-01-11T22:42:12.956Z,22.87
2019-01-11T22:44:40.007Z,18.23
2019-01-11T22:47:07.064Z,22.40
2019-01-11T22:49:34.104Z,20.63
2019-01-11T22:52:03.574Z,18.97
2019-01-11T22:54:30.554Z,16.17
2019-01-11T22:56:57.602Z,17.13
2019-01-11T22:59:26.393Z,21.00
2019-01-11T23:01:53.543Z,20.43
2019-01-11T23:04:21.424Z,19.70
2019-01-11T23:06:49.796Z,14.53
2019-01-11T23:09:16.839Z,15.53
2019-01-11T23:12:02.729Z,17.57
2019-01-11T23:14:29.778Z,18.33
2019-01-11T23:16:56.832Z,16.30
2019-01-11T23:19:23.836Z,20.23
2019-01-11T23:21:53.100Z,17.37
2019-01-11T23:24:20.129Z,19.70
2019-01-11T23:26:47.170Z,20.23
2019-01-11T23:29:14.220Z,18.10
2019-01-11T23:31:41.273Z,16.87
2019-01-11T23:34:08.315Z,15.00
2019-01-11T23:36:35.365Z,15.30
2019-01-11T23:39:02.419Z,14.93
2019-01-11T23:41:29.460Z,15.27
2019-01-11T23:43:56.509Z,15.67
2019-01-11T23:46:23.564Z,13.90
2019-01-11T23:48:50.607Z,15.87
2019-01-11T23:51:17.655Z,19.43
2019-01-11T23:53:44.708Z,17.17
2019-01-11T23:56:11.753Z,16.37
2019-01-11T23:58:38.800Z,18.50
